Time;durP1;ratioP1;P1;durP2;ratioP2;P2;SDS_P1;SDS_P2;PMS_P1;PMS_P2;Temp;Humidity;BMP_temperature;BMP_pressure;BME280_temperature;BME280_humidity;BME280_pressure;Samples;Min_cycle;Max_cycle;Signal;HPM_P1;HPM_P2
2023/05/06 00:00:55;;;;;;;8.40;4.13;;;19.20;73.90;;;;;;6215195;23;19996;-69
2023/05/06 00:03:20;;;;;;;8.73;3.58;;;19.20;74.10;;;;;;6215745;23;20043;-69
2023/05/06 00:05:46;;;;;;;8.85;3.67;;;19.20;74.00;;;;;;6215312;23;20027;-69
2023/05/06 00:08:12;;;;;;;8.90;4.13;;;19.20;74.10;;;;;;6215780;23;20011;-69
2023/05/06 00:10:37;;;;;;;8.50;4.15;;;19.20;74.10;;;;;;6215388;23;20046;-69
2023/05/06 00:13:03;;;;;;;8.50;4.00;;;19.20;74.10;;;;;;6215399;23;20012;-69
2023/05/06 00:15:29;;;;;;;8.32;3.90;;;19.20;74.00;;;;;;6215327;23;20004;-69
2023/05/06 00:17:54;;;;;;;6.60;3.70;;;19.10;74.10;;;;;;6213974;23;20004;-69
2023/05/06 00:20:20;;;;;;;7.45;3.50;;;19.20;74.00;;;;;;6215417;23;19997;-69
2023/05/06 00:22:46;;;;;;;5.15;3.38;;;19.10;74.00;;;;;;6215260;23;20005;-68
2023/05/06 00:25:12;;;;;;;6.53;3.72;;;19.20;74.10;;;;;;6215430;23;20007;-69
2023/05/06 00:27:37;;;;;;;6.13;3.38;;;19.20;74.10;;;;;;6214169;23;20008;-69
2023/05/06 00:30:04;;;;;;;6.30;3.35;;;19.10;74.00;;;;;;6215005;23;20647;-69
2023/05/06 00:32:29;;;;;;;5.43;3.47;;;19.10;74.10;;;;;;6188911;23;20463;-69
2023/05/06 00:34:55;;;;;;;6.22;3.53;;;19.20;74.30;;;;;;6215124;23;20000;-69
2023/05/06 00:37:20;;;;;;;8.43;4.15;;;19.10;74.20;;;;;;6215266;23;20119;-69
2023/05/06 00:39:46;;;;;;;5.15;3.22;;;19.20;74.10;;;;;;6213880;23;20003;-69
2023/05/06 00:42:12;;;;;;;7.50;3.85;;;19.10;74.10;;;;;;6215225;23;20337;-69
2023/05/06 00:44:37;;;;;;;9.52;3.65;;;19.10;74.20;;;;;;6214891;23;20004;-69
2023/05/06 00:47:03;;;;;;;6.70;3.80;;;19.10;74.70;;;;;;6214922;23;20007;-69
2023/05/06 00:49:29;;;;;;;6.47;3.35;;;19.20;74.60;;;;;;6213942;23;20000;-69
2023/05/06 00:51:55;;;;;;;6.72;3.28;;;19.10;74.50;;;;;;6213615;23;20437;-69
2023/05/06 00:54:21;;;;;;;6.88;3.60;;;19.10;74.40;;;;;;6213668;23;20000;-69
2023/05/06 00:56:47;;;;;;;5.20;3.13;;;19.10;74.40;;;;;;6213596;23;20407;-69
2023/05/06 00:59:12;;;;;;;7.78;3.22;;;19.10;74.60;;;;;;6214592;23;20035;-68
2023/05/06 01:01:38;;;;;;;6.82;3.97;;;19.20;74.60;;;;;;6213640;23;20039;-68
2023/05/06 01:04:06;;;;;;;6.40;3.40;;;19.10;74.80;;;;;;6215003;23;20028;-68
2023/05/06 01:07:02;;;;;;;4.88;2.97;;;19.10;74.80;;;;;;6214791;23;20044;-68
2023/05/06 01:09:35;;;;;;;5.97;3.08;;;19.20;75.00;;;;;;6193375;23;20009;-68
2023/05/06 01:12:23;;;;;;;5.53;3.15;;;19.20;75.20;;;;;;6189361;23;20001;-68
2023/05/06 01:15:15;;;;;;;4.95;3.10;;;19.20;75.00;;;;;;6189004;23;20074;-68
2023/05/06 01:17:45;;;;;;;6.37;3.37;;;19.20;75.10;;;;;;6215075;23;20016;-68
2023/05/06 01:20:11;;;;;;;5.15;3.40;;;19.20;75.20;;;;;;6213460;23;20087;-68
2023/05/06 01:22:36;;;;;;;8.18;3.55;;;19.10;75.10;;;;;;6213526;23;20036;-68
2023/05/06 01:25:02;;;;;;;11.00;3.22;;;19.20;75.20;;;;;;6214609;23;19997;-68
2023/05/06 01:27:28;;;;;;;4.07;2.83;;;19.20;75.20;;;;;;6214771;23;20491;-68
2023/05/06 01:29:53;;;;;;;5.07;2.95;;;19.10;75.20;;;;;;6214600;23;20028;-68
2023/05/06 01:32:22;;;;;;;4.25;2.97;;;19.10;75.20;;;;;;6213350;23;20001;-68
2023/05/06 01:35:10;;;;;;;8.48;3.47;;;19.20;75.20;;;;;;6214858;23;20024;-68
2023/05/06 01:37:55;;;;;;;5.53;3.50;;;19.20;75.20;;;;;;6093591;23;20018;-68
2023/05/06 01:40:20;;;;;;;7.25;3.10;;;19.10;75.20;;;;;;6093525;23;20033;-68
2023/05/06 01:42:48;;;;;;;4.30;2.75;;;19.10;75.20;;;;;;6069213;23;20017;-68
2023/05/06 01:45:13;;;;;;;5.13;3.25;;;19.10;75.20;;;;;;6069818;23;20011;-68
2023/05/06 01:47:40;;;;;;;6.32;3.28;;;19.10;75.20;;;;;;6069804;23;20390;-68
2023/05/06 01:50:05;;;;;;;6.15;3.13;;;19.20;75.30;;;;;;6069707;23;20002;-68
2023/05/06 01:52:31;;;;;;;5.47;3.28;;;19.10;75.20;;;;;;6069596;23;20003;-68
2023/05/06 01:54:57;;;;;;;6.38;2.78;;;19.10;75.30;;;;;;6093716;23;20006;-68
2023/05/06 01:57:22;;;;;;;4.05;2.63;;;19.10;75.20;;;;;;6093300;23;20013;-68
2023/05/06 01:59:48;;;;;;;5.95;3.08;;;19.10;75.30;;;;;;6093386;23;20011;-68
2023/05/06 02:02:14;;;;;;;5.53;3.03;;;19.10;75.30;;;;;;6093607;23;20007;-68
2023/05/06 02:04:40;;;;;;;5.00;2.70;;;19.10;75.30;;;;;;6092977;23;20002;-69
2023/05/06 02:07:05;;;;;;;6.10;2.65;;;19.10;75.30;;;;;;6093314;23;20038;-68
2023/05/06 02:09:31;;;;;;;3.70;2.63;;;19.20;75.40;;;;;;6093761;23;20081;-68
2023/05/06 02:11:56;;;;;;;5.25;3.15;;;19.10;75.30;;;;;;6068951;23;20010;-68
2023/05/06 02:14:22;;;;;;;4.97;2.80;;;19.10;75.30;;;;;;6141689;23;20488;-68
2023/05/06 02:16:48;;;;;;;4.75;2.88;;;19.10;75.30;;;;;;6214556;23;20055;-68
2023/05/06 02:19:13;;;;;;;5.65;2.80;;;19.10;75.30;;;;;;6214482;23;19997;-68
2023/05/06 02:21:39;;;;;;;4.65;2.55;;;19.10;75.40;;;;;;6213075;23;19997;-68
2023/05/06 02:24:05;;;;;;;4.43;3.05;;;19.10;75.30;;;;;;6214410;23;20100;-68
2023/05/06 02:26:31;;;;;;;5.07;3.00;;;19.10;75.30;;;;;;6212863;23;20074;-69
2023/05/06 02:28:56;;;;;;;5.40;2.60;;;19.10;75.40;;;;;;6214444;23;20449;-69
2023/05/06 02:31:22;;;;;;;3.78;2.55;;;19.10;75.40;;;;;;6214517;23;20001;-69
2023/05/06 02:33:48;;;;;;;4.05;2.67;;;19.10;75.40;;;;;;6212958;23;20004;-68
2023/05/06 02:36:13;;;;;;;6.97;2.72;;;19.10;75.40;;;;;;6214198;23;20008;-68
2023/05/06 02:38:39;;;;;;;3.83;2.33;;;19.10;75.50;;;;;;6214468;23;20005;-68
2023/05/06 02:41:05;;;;;;;5.05;2.85;;;19.10;75.50;;;;;;6214079;23;20344;-68
2023/05/06 02:43:30;;;;;;;4.93;3.08;;;19.10;75.50;;;;;;6214589;23;20337;-68
2023/05/06 02:45:56;;;;;;;3.80;2.65;;;19.10;75.50;;;;;;6214360;23;20467;-68
2023/05/06 02:48:22;;;;;;;5.00;2.50;;;19.10;75.50;;;;;;6214319;23;20084;-68
2023/05/06 02:50:48;;;;;;;8.80;2.72;;;19.10;75.60;;;;;;6214529;23;20345;-68
2023/05/06 02:53:14;;;;;;;4.80;2.88;;;19.10;75.60;;;;;;6212879;23;20013;-68
2023/05/06 02:55:39;;;;;;;5.55;2.60;;;19.10;75.60;;;;;;6215360;23;20374;-68
2023/05/06 02:58:05;;;;;;;4.55;2.63;;;19.10;75.60;;;;;;6216143;23;20004;-68
2023/05/06 03:00:30;;;;;;;3.72;2.72;;;19.10;75.60;;;;;;6214745;23;19989;-68
2023/05/06 03:02:56;;;;;;;4.78;2.70;;;19.10;75.60;;;;;;6216291;23;19996;-68
2023/05/06 03:05:22;;;;;;;4.05;2.45;;;19.10;75.60;;;;;;6215975;23;20024;-68
2023/05/06 03:07:47;;;;;;;4.05;2.97;;;19.10;75.60;;;;;;6214729;23;20031;-68
2023/05/06 03:10:13;;;;;;;4.22;2.60;;;19.10;75.60;;;;;;6215798;23;20035;-68
2023/05/06 03:12:39;;;;;;;5.13;2.95;;;19.10;75.60;;;;;;6214686;23;19997;-68
2023/05/06 03:15:05;;;;;;;3.75;2.50;;;19.10;75.60;;;;;;6189657;23;20000;-68
2023/05/06 03:17:31;;;;;;;3.97;2.10;;;19.00;75.60;;;;;;6216423;23;20005;-68
2023/05/06 03:19:56;;;;;;;4.28;2.83;;;19.10;75.60;;;;;;6215948;23;20448;-68
2023/05/06 03:22:22;;;;;;;3.67;2.42;;;19.10;75.70;;;;;;6189528;23;20000;-68
2023/05/06 03:24:47;;;;;;;3.33;2.20;;;19.10;75.70;;;;;;6215867;23;20071;-68
2023/05/06 03:27:13;;;;;;;3.85;2.40;;;19.10;75.70;;;;;;6215909;23;20089;-68
2023/05/06 03:29:39;;;;;;;3.97;2.65;;;19.10;75.70;;;;;;6216069;23;20001;-68
2023/05/06 03:32:05;;;;;;;4.10;2.40;;;19.00;75.60;;;;;;6215930;23;20011;-68
2023/05/06 03:34:30;;;;;;;4.40;2.30;;;19.10;75.70;;;;;;6216110;23;20004;-68
2023/05/06 03:36:57;;;;;;;4.68;2.25;;;19.10;75.70;;;;;;6214412;23;20437;-68
2023/05/06 03:39:22;;;;;;;4.93;2.45;;;19.10;75.70;;;;;;6214207;23;20883;-68
2023/05/06 03:41:48;;;;;;;4.32;2.90;;;19.00;75.70;;;;;;6215725;23;19996;-68
2023/05/06 03:44:14;;;;;;;3.85;2.55;;;19.10;75.80;;;;;;6215803;23;20425;-68
2023/05/06 03:46:40;;;;;;;3.80;2.30;;;19.10;75.70;;;;;;6215788;23;20453;-68
2023/05/06 03:49:06;;;;;;;3.28;2.08;;;19.00;75.70;;;;;;6214400;23;20005;-68
2023/05/06 03:51:32;;;;;;;5.25;2.45;;;19.10;75.70;;;;;;6215742;23;20005;-68
2023/05/06 03:53:58;;;;;;;3.63;2.55;;;19.10;75.80;;;;;;6214081;23;20092;-68
2023/05/06 03:56:23;;;;;;;3.67;2.20;;;19.00;75.70;;;;;;6215549;23;20024;-68
2023/05/06 03:58:49;;;;;;;2.90;2.10;;;19.00;75.70;;;;;;6215716;23;20441;-68
2023/05/06 04:01:16;;;;;;;3.35;2.05;;;19.00;75.70;;;;;;6215534;23;20008;-68
2023/05/06 04:03:43;;;;;;;4.10;2.10;;;19.00;75.70;;;;;;6215603;23;20076;-68
2023/05/06 04:06:08;;;;;;;4.80;2.20;;;19.00;75.80;;;;;;6213775;23;20016;-68
2023/05/06 04:08:34;;;;;;;3.38;2.25;;;19.00;75.70;;;;;;6213873;23;20005;-68
2023/05/06 04:11:05;;;;;;;3.45;2.45;;;19.00;75.70;;;;;;6214185;23;20000;-68
2023/05/06 04:13:32;;;;;;;3.43;2.20;;;19.00;75.70;;;;;;6215484;23;20059;-68
2023/05/06 04:15:58;;;;;;;4.40;2.03;;;19.00;75.80;;;;;;6214004;23;20000;-68
2023/05/06 04:18:23;;;;;;;2.55;1.90;;;19.00;75.80;;;;;;6215365;23;19997;-69
2023/05/06 04:20:49;;;;;;;2.95;2.08;;;19.00;75.80;;;;;;6215701;23;20044;-69
2023/05/06 04:23:15;;;;;;;4.57;2.40;;;19.00;75.80;;;;;;6214970;23;20008;-69
2023/05/06 04:25:47;;;;;;;2.72;2.05;;;19.00;75.80;;;;;;6215515;23;20003;-69
2023/05/06 04:28:13;;;;;;;3.70;2.30;;;19.00;75.90;;;;;;6215432;23;20000;-69
2023/05/06 04:30:38;;;;;;;3.47;2.17;;;19.00;75.90;;;;;;6213940;23;20380;-69
2023/05/06 04:33:04;;;;;;;4.00;2.20;;;19.00;75.90;;;;;;6213680;23;20079;-69
2023/05/06 04:35:30;;;;;;;2.75;2.13;;;19.00;75.90;;;;;;6215178;23;20072;-69
2023/05/06 04:37:56;;;;;;;2.95;2.10;;;19.00;75.90;;;;;;6215080;23;20086;-68
2023/05/06 04:40:22;;;;;;;4.10;2.00;;;19.00;76.00;;;;;;6215158;23;19997;-68
2023/05/06 04:42:47;;;;;;;2.33;1.80;;;19.00;76.00;;;;;;6215458;23;20001;-68
2023/05/06 04:45:13;;;;;;;3.28;2.13;;;19.00;76.00;;;;;;6215037;23;20322;-68
2023/05/06 04:47:39;;;;;;;2.83;2.17;;;19.00;76.00;;;;;;6215173;23;20005;-68
2023/05/06 04:50:05;;;;;;;3.97;2.50;;;19.00;76.10;;;;;;6213827;23;20471;-68
2023/05/06 04:52:31;;;;;;;2.90;2.20;;;19.00;76.10;;;;;;6214745;23;20004;-68
2023/05/06 04:54:56;;;;;;;3.78;2.58;;;19.00;76.20;;;;;;6213525;23;20007;-69
2023/05/06 04:57:22;;;;;;;2.83;2.35;;;19.00;76.20;;;;;;6214963;23;20356;-69
2023/05/06 04:59:47;;;;;;;3.63;2.10;;;19.00;76.20;;;;;;6215085;23;20433;-68
2023/05/06 05:02:13;;;;;;;2.88;2.00;;;19.00;76.30;;;;;;6215002;23;20043;-68
2023/05/06 05:04:39;;;;;;;2.65;1.90;;;19.00;76.30;;;;;;6214856;23;20035;-68
2023/05/06 05:07:06;;;;;;;5.78;2.03;;;19.00;76.40;;;;;;6214784;23;20418;-69
2023/05/06 05:09:33;;;;;;;2.47;1.75;;;19.00;76.50;;;;;;6215123;23;20005;-69
2023/05/06 05:12:00;;;;;;;4.80;1.80;;;19.00;76.50;;;;;;6188742;23;20011;-69
2023/05/06 05:14:26;;;;;;;6.35;2.00;;;19.00;76.50;;;;;;6214681;23;20000;-69
2023/05/06 05:16:52;;;;;;;4.93;2.17;;;19.00;76.50;;;;;;6213201;23;20008;-69
2023/05/06 05:19:17;;;;;;;3.50;2.10;;;19.00;76.50;;;;;;6214473;23;20004;-69
2023/05/06 05:21:43;;;;;;;3.35;2.00;;;19.00;76.50;;;;;;6214895;23;20417;-69
2023/05/06 05:24:08;;;;;;;5.55;2.00;;;19.00;76.60;;;;;;6214914;23;20023;-69
2023/05/06 05:26:34;;;;;;;3.05;1.95;;;19.00;76.50;;;;;;6214564;23;20001;-69
2023/05/06 05:29:00;;;;;;;5.75;1.98;;;19.00;76.50;;;;;;6214115;23;20007;-68
2023/05/06 05:31:25;;;;;;;6.38;1.95;;;19.00;76.60;;;;;;6213507;23;20071;-68
2023/05/06 05:33:51;;;;;;;3.72;1.85;;;19.00;76.70;;;;;;6215022;23;20000;-69
2023/05/06 05:36:16;;;;;;;5.40;1.80;;;19.00;76.70;;;;;;6215113;23;20000;-69
2023/05/06 05:38:42;;;;;;;4.50;1.77;;;19.00;76.70;;;;;;6188913;23;20435;-68
2023/05/06 05:41:08;;;;;;;3.22;1.85;;;19.00;76.70;;;;;;6213706;23;20068;-68
2023/05/06 05:43:33;;;;;;;3.60;1.75;;;19.00;76.80;;;;;;6215248;23;20000;-68
2023/05/06 05:45:59;;;;;;;3.60;1.73;;;19.00;76.80;;;;;;6215030;23;20080;-68
2023/05/06 05:48:25;;;;;;;8.40;1.92;;;19.00;76.80;;;;;;6213179;23;20344;-68
2023/05/06 05:50:50;;;;;;;2.80;1.60;;;19.00;76.80;;;;;;6215344;23;20036;-68
2023/05/06 05:53:16;;;;;;;2.75;1.77;;;19.00;76.80;;;;;;6215221;23;20032;-68
2023/05/06 05:55:41;;;;;;;4.25;1.80;;;19.00;76.80;;;;;;6215263;23;20004;-69
2023/05/06 05:58:09;;;;;;;7.20;1.80;;;19.00;76.80;;;;;;6214862;23;19997;-69
2023/05/06 06:00:35;;;;;;;2.05;1.70;;;19.00;76.90;;;;;;6213576;23;19997;-69
2023/05/06 06:03:00;;;;;;;2.13;1.58;;;19.00;76.80;;;;;;6215051;23;19997;-69
2023/05/06 06:05:26;;;;;;;1.60;1.33;;;19.00;76.90;;;;;;6214946;23;20067;-69
2023/05/06 06:07:52;;;;;;;3.40;1.40;;;19.00;76.90;;;;;;6213726;23;20468;-69
2023/05/06 06:10:17;;;;;;;3.03;2.05;;;19.00;76.90;;;;;;6213813;23;20448;-69
2023/05/06 06:12:43;;;;;;;6.45;1.83;;;19.00;76.90;;;;;;6215162;23;20001;-69
2023/05/06 06:15:09;;;;;;;1.73;1.35;;;19.00;76.90;;;;;;6215222;23;20004;-69
2023/05/06 06:17:35;;;;;;;2.10;1.55;;;19.00;77.00;;;;;;6213346;23;20197;-68
2023/05/06 06:20:01;;;;;;;2.40;1.63;;;19.00;77.00;;;;;;6215393;23;19996;-69
2023/05/06 06:22:26;;;;;;;2.40;1.73;;;19.00;77.00;;;;;;6213604;23;19996;-69
2023/05/06 06:24:52;;;;;;;5.28;1.63;;;19.00;77.00;;;;;;6215458;23;20461;-69
2023/05/06 06:27:18;;;;;;;2.53;1.48;;;19.00;77.00;;;;;;6214958;23;20024;-69
2023/05/06 06:29:47;;;;;;;2.70;1.63;;;19.00;77.00;;;;;;6215160;23;20001;-69
2023/05/06 06:32:13;;;;;;;3.58;1.85;;;19.00;77.00;;;;;;6217196;23;20001;-68
2023/05/06 06:34:38;;;;;;;2.17;1.52;;;19.00;77.00;;;;;;6217159;23;20008;-68
2023/05/06 06:37:04;;;;;;;4.47;1.60;;;19.00;76.90;;;;;;6217126;23;20012;-68
2023/05/06 06:39:30;;;;;;;2.42;1.55;;;19.00;77.00;;;;;;6215354;23;20004;-68
2023/05/06 06:41:57;;;;;;;3.10;1.48;;;19.00;77.00;;;;;;6217262;23;20429;-68
2023/05/06 06:44:22;;;;;;;2.67;1.40;;;19.00;77.00;;;;;;6216873;23;19997;-68
2023/05/06 06:46:48;;;;;;;3.28;1.73;;;19.00;77.00;;;;;;6215315;23;20035;-68
2023/05/06 06:49:14;;;;;;;3.05;1.50;;;19.00;77.00;;;;;;6217003;23;20168;-68
2023/05/06 06:51:40;;;;;;;2.72;1.77;;;19.00;77.10;;;;;;6215450;23;20000;-68
2023/05/06 06:54:05;;;;;;;4.15;1.40;;;19.00;77.10;;;;;;6215616;23;20015;-68
2023/05/06 06:56:31;;;;;;;10.15;1.85;;;19.00;77.10;;;;;;6216761;23;20041;-68
2023/05/06 06:58:57;;;;;;;2.08;1.30;;;19.00;77.10;;;;;;6216876;23;20004;-68
2023/05/06 07:01:22;;;;;;;3.67;1.38;;;19.00;77.10;;;;;;6216673;23;20028;-68
2023/05/06 07:03:48;;;;;;;2.45;1.63;;;19.00;77.10;;;;;;6216745;23;19997;-69
2023/05/06 07:06:14;;;;;;;1.63;1.25;;;19.00;77.10;;;;;;6215466;23;20024;-69
2023/05/06 07:08:39;;;;;;;2.75;1.88;;;19.00;77.10;;;;;;6216726;23;20007;-68
2023/05/06 07:11:05;;;;;;;1.63;1.20;;;19.00;77.10;;;;;;6216908;23;20005;-68
2023/05/06 07:13:31;;;;;;;3.30;1.50;;;19.00;77.10;;;;;;6216825;23;20005;-68
2023/05/06 07:15:57;;;;;;;3.60;1.40;;;19.00;77.10;;;;;;6216549;23;20011;-69
2023/05/06 07:18:23;;;;;;;1.95;1.30;;;19.00;77.10;;;;;;6216637;23;19996;-68
2023/05/06 07:20:48;;;;;;;1.92;1.63;;;19.00;77.10;;;;;;6216790;23;20051;-68
2023/05/06 07:23:14;;;;;;;2.72;1.60;;;19.00;77.20;;;;;;6214953;23;20020;-68
2023/05/06 07:25:40;;;;;;;2.00;1.40;;;19.00;77.20;;;;;;6216502;23;20026;-68
2023/05/06 07:28:06;;;;;;;2.33;1.70;;;19.00;77.10;;;;;;6215232;23;20004;-68
2023/05/06 07:30:31;;;;;;;2.28;1.20;;;19.00;77.10;;;;;;6214568;23;19996;-69
2023/05/06 07:32:57;;;;;;;5.22;1.80;;;19.00;77.20;;;;;;6216603;23;20000;-69
2023/05/06 07:35:23;;;;;;;1.98;1.50;;;19.00;77.20;;;;;;6217020;23;20067;-69
2023/05/06 07:37:49;;;;;;;1.92;1.08;;;19.00;77.20;;;;;;6216513;23;20079;-69
2023/05/06 07:40:14;;;;;;;4.30;1.50;;;19.00;77.20;;;;;;6216167;23;20003;-69
2023/05/06 07:42:40;;;;;;;11.30;1.55;;;19.00;77.10;;;;;;6214828;23;20004;-69
2023/05/06 07:45:06;;;;;;;3.22;1.50;;;19.00;77.10;;;;;;6216370;23;20005;-69
2023/05/06 07:47:32;;;;;;;1.75;1.40;;;19.00;77.20;;;;;;6216440;23;20456;-69
2023/05/06 07:49:58;;;;;;;2.75;1.60;;;19.00;77.20;;;;;;6214680;23;20071;-69
2023/05/06 07:52:24;;;;;;;2.80;1.45;;;19.00;77.20;;;;;;6215021;23;20035;-69
2023/05/06 07:54:50;;;;;;;1.95;1.52;;;19.00;77.20;;;;;;6216618;23;20008;-69
2023/05/06 07:57:16;;;;;;;1.80;1.25;;;19.00;77.20;;;;;;6214732;23;20013;-69
2023/05/06 07:59:43;;;;;;;5.93;1.40;;;19.00;77.20;;;;;;6216073;23;20001;-69
2023/05/06 08:02:08;;;;;;;1.30;1.02;;;19.00;77.30;;;;;;6216458;23;20076;-69
2023/05/06 08:04:34;;;;;;;2.38;1.10;;;19.00;77.20;;;;;;6216273;23;20464;-68
2023/05/06 08:07:00;;;;;;;2.15;1.08;;;19.00;77.30;;;;;;6214616;23;20016;-69
2023/05/06 08:09:25;;;;;;;1.85;1.30;;;19.00;77.20;;;;;;6216342;23;20013;-69
2023/05/06 08:11:52;;;;;;;1.88;1.63;;;19.00;77.20;;;;;;6216367;23;20024;-69
2023/05/06 08:14:17;;;;;;;1.63;1.10;;;19.00;77.30;;;;;;6214445;23;20004;-69
2023/05/06 08:16:43;;;;;;;1.88;1.40;;;19.00;77.30;;;;;;6215925;23;20004;-69
2023/05/06 08:19:08;;;;;;;1.25;0.95;;;19.00;77.30;;;;;;6216250;23;19996;-69
2023/05/06 08:21:34;;;;;;;2.53;1.27;;;19.00;77.30;;;;;;6216213;23;20001;-69
2023/05/06 08:24:00;;;;;;;2.55;1.38;;;18.90;77.30;;;;;;6216353;23;20325;-68
2023/05/06 08:26:25;;;;;;;4.13;1.58;;;19.00;77.30;;;;;;6215938;23;20012;-70
2023/05/06 08:28:51;;;;;;;3.58;1.40;;;19.00;77.30;;;;;;6215625;23;20001;-68
2023/05/06 08:31:17;;;;;;;2.75;1.42;;;19.00;77.30;;;;;;6216130;23;20001;-68
2023/05/06 08:33:42;;;;;;;1.83;1.10;;;19.00;77.30;;;;;;6216219;23;20081;-68
2023/05/06 08:36:08;;;;;;;2.22;1.30;;;19.00;77.30;;;;;;6215845;23;20039;-68
2023/05/06 08:38:33;;;;;;;1.40;0.98;;;19.00;77.40;;;;;;6215981;23;20341;-67
2023/05/06 08:41:00;;;;;;;2.95;1.20;;;19.00;76.50;;;;;;6214285;23;19996;-67
2023/05/06 08:43:26;;;;;;;2.30;1.10;;;18.90;75.30;;;;;;6189361;23;20028;-67
2023/05/06 08:45:52;;;;;;;2.28;1.10;;;18.90;75.00;;;;;;6213338;23;20072;-67
2023/05/06 08:48:18;;;;;;;1.23;0.90;;;18.90;75.10;;;;;;6214248;23;20004;-67
2023/05/06 08:50:43;;;;;;;1.75;1.00;;;18.90;75.10;;;;;;6215851;23;20001;-67
2023/05/06 08:53:11;;;;;;;2.15;1.10;;;18.90;75.20;;;;;;6215934;23;20028;-67
2023/05/06 08:55:37;;;;;;;1.50;1.15;;;18.90;75.20;;;;;;6214314;23;20000;-67
2023/05/06 08:58:03;;;;;;;3.63;1.10;;;18.90;75.10;;;;;;6214149;23;20058;-67
2023/05/06 09:00:29;;;;;;;2.30;1.10;;;18.90;75.10;;;;;;6214047;23;19997;-67
2023/05/06 09:02:55;;;;;;;6.53;1.95;;;18.90;75.10;;;;;;6214303;23;20000;-67
2023/05/06 09:05:20;;;;;;;1.58;1.02;;;18.90;75.00;;;;;;6214023;23;20013;-67
2023/05/06 09:07:46;;;;;;;1.45;1.10;;;18.80;75.00;;;;;;6215456;23;20436;-67
2023/05/06 09:10:12;;;;;;;1.67;1.23;;;18.80;75.00;;;;;;6215660;23;20007;-67
2023/05/06 09:12:38;;;;;;;1.55;1.05;;;18.80;75.00;;;;;;6188969;23;20004;-67
2023/05/06 09:15:04;;;;;;;4.85;1.17;;;18.80;74.90;;;;;;6214034;23;20079;-67
2023/05/06 09:17:31;;;;;;;3.85;1.10;;;18.80;74.90;;;;;;6215665;23;20001;-67
2023/05/06 09:19:57;;;;;;;1.33;1.00;;;18.80;74.90;;;;;;6213977;23;20007;-68
2023/05/06 09:22:24;;;;;;;1.13;0.73;;;18.80;74.90;;;;;;6215639;23;20072;-67
2023/05/06 09:24:56;;;;;;;3.70;1.05;;;18.80;75.00;;;;;;6188706;23;20001;-75
2023/05/06 09:27:31;;;;;;;4.13;1.35;;;18.90;74.60;;;;;;6214958;23;20004;-78
2023/05/06 09:30:06;;;;;;;3.35;1.27;;;18.90;74.30;;;;;;6189153;23;20000;-78
2023/05/06 09:32:32;;;;;;;3.03;1.30;;;19.00;74.10;;;;;;6215424;23;20051;-78
2023/05/06 09:34:58;;;;;;;4.35;1.23;;;19.00;74.10;;;;;;6189028;23;20004;-78
2023/05/06 09:37:25;;;;;;;3.75;1.00;;;19.00;73.70;;;;;;6164065;23;20010;-78
2023/05/06 09:39:53;;;;;;;5.65;1.50;;;19.00;73.90;;;;;;6215133;23;20025;-78
2023/05/06 09:42:20;;;;;;;4.38;0.98;;;19.10;73.70;;;;;;6213798;23;20000;-74
2023/05/06 09:44:46;;;;;;;4.68;1.20;;;19.10;73.50;;;;;;6213903;23;20506;-74
2023/05/06 09:47:12;;;;;;;2.80;0.70;;;19.10;73.30;;;;;;6213835;23;20083;-74
2023/05/06 09:49:37;;;;;;;4.65;0.90;;;19.10;73.30;;;;;;6213513;23;20005;-75
2023/05/06 09:52:03;;;;;;;2.92;0.70;;;19.10;73.00;;;;;;6188155;23;20047;-74
2023/05/06 09:54:29;;;;;;;2.95;0.80;;;19.20;72.90;;;;;;6212556;23;20008;-74
2023/05/06 09:56:54;;;;;;;2.75;0.90;;;19.10;72.90;;;;;;6211514;23;20436;-74
2023/05/06 09:59:20;;;;;;;2.25;0.65;;;19.20;72.80;;;;;;6187241;23;20062;-74
2023/05/06 10:01:46;;;;;;;2.03;0.68;;;19.20;72.60;;;;;;6186342;23;20341;-74
2023/05/06 10:04:11;;;;;;;3.72;1.10;;;19.20;72.50;;;;;;6211660;23;19997;-74
2023/05/06 10:06:40;;;;;;;2.85;0.95;;;19.20;72.30;;;;;;6211076;23;20032;-74
2023/05/06 10:09:07;;;;;;;1.52;0.70;;;19.20;72.30;;;;;;6211245;23;20082;-73
2023/05/06 10:11:32;;;;;;;3.50;1.00;;;19.30;72.30;;;;;;6211286;23;20004;-75
2023/05/06 10:13:59;;;;;;;2.55;0.95;;;19.30;72.00;;;;;;6212619;23;20473;-74
2023/05/06 10:16:24;;;;;;;1.92;0.70;;;19.30;71.80;;;;;;6211567;23;20027;-74
2023/05/06 10:18:50;;;;;;;1.42;0.60;;;19.30;71.90;;;;;;6211964;23;20001;-67
2023/05/06 10:21:20;;;;;;;2.42;0.60;;;19.30;71.80;;;;;;6188212;23;20004;-68
2023/05/06 10:23:56;;;;;;;2.40;0.90;;;19.20;72.20;;;;;;6212848;23;20007;-68
2023/05/06 10:26:21;;;;;;;2.60;0.80;;;19.20;72.40;;;;;;6214611;23;20083;-68
2023/05/06 10:28:51;;;;;;;1.73;0.70;;;19.20;72.50;;;;;;6213164;23;20004;-68
2023/05/06 10:31:17;;;;;;;1.10;0.50;;;19.20;72.50;;;;;;6188732;23;20001;-68
2023/05/06 10:33:45;;;;;;;2.28;0.75;;;19.20;72.50;;;;;;6214543;23;20055;-68
2023/05/06 10:36:19;;;;;;;2.85;0.70;;;19.10;72.50;;;;;;6213307;23;20001;-68
2023/05/06 10:38:48;;;;;;;1.58;0.63;;;19.10;72.60;;;;;;6188890;23;19996;-68
2023/05/06 10:41:13;;;;;;;2.42;0.80;;;19.10;72.60;;;;;;6213257;23;20004;-68
2023/05/06 10:43:40;;;;;;;2.17;0.68;;;19.10;72.60;;;;;;6188131;23;20415;-68
2023/05/06 10:46:29;;;;;;;1.52;0.68;;;19.10;72.70;;;;;;6213433;23;20011;-68
2023/05/06 10:49:10;;;;;;;1.95;0.65;;;19.10;72.80;;;;;;6189123;23;20000;-68
2023/05/06 10:51:41;;;;;;;2.88;0.80;;;19.00;72.80;;;;;;6214845;23;20013;-68
2023/05/06 10:54:27;;;;;;;2.42;0.70;;;19.00;72.80;;;;;;6214267;23;20036;-68
2023/05/06 10:56:53;;;;;;;1.55;0.90;;;19.00;72.90;;;;;;6213653;23;20012;-68
2023/05/06 10:59:25;;;;;;;1.70;0.60;;;19.00;73.00;;;;;;6214663;23;20056;-68
2023/05/06 11:02:09;;;;;;;2.15;0.70;;;19.00;72.90;;;;;;6212957;23;20026;-68
2023/05/06 11:04:36;;;;;;;1.67;0.70;;;19.00;73.00;;;;;;6212920;23;20459;-68
2023/05/06 11:07:10;;;;;;;1.88;0.65;;;19.00;73.00;;;;;;6214100;23;20017;-68
2023/05/06 11:09:53;;;;;;;2.30;0.82;;;19.00;73.00;;;;;;6214215;23;20004;-68
2023/05/06 11:12:19;;;;;;;1.80;0.70;;;18.90;73.00;;;;;;6214558;23;20005;-68
2023/05/06 11:14:45;;;;;;;1.38;0.60;;;18.90;73.00;;;;;;6212841;23;20142;-68
2023/05/06 11:17:28;;;;;;;2.22;0.70;;;18.90;73.00;;;;;;6215823;23;20011;-68
2023/05/06 11:20:16;;;;;;;1.63;0.80;;;18.90;73.00;;;;;;6214621;23;20005;-68
2023/05/06 11:22:42;;;;;;;1.10;0.60;;;18.90;73.00;;;;;;6216006;23;20001;-68
2023/05/06 11:25:08;;;;;;;1.35;0.57;;;18.90;73.10;;;;;;6215926;23;20417;-68
2023/05/06 11:27:34;;;;;;;1.08;0.68;;;18.90;73.10;;;;;;6214685;23;20083;-68
2023/05/06 11:29:59;;;;;;;1.70;0.60;;;18.90;73.10;;;;;;6214464;23;20005;-68
2023/05/06 11:32:25;;;;;;;1.23;0.77;;;18.90;73.20;;;;;;6214628;23;20000;-68
2023/05/06 11:34:53;;;;;;;1.55;0.68;;;18.90;73.20;;;;;;6189673;23;20424;-68
2023/05/06 11:37:26;;;;;;;1.67;0.82;;;18.90;73.20;;;;;;6215736;23;20036;-68
2023/05/06 11:39:52;;;;;;;1.23;0.50;;;18.90;73.20;;;;;;6215817;23;20107;-68
2023/05/06 11:42:25;;;;;;;1.33;0.70;;;18.90;74.20;;;;;;6216003;23;20032;-68
2023/05/06 11:44:51;;;;;;;;;;;18.90;73.20;;;;;;6216350;23;20003;-68
2023/05/06 11:47:22;;;;;;;1.60;0.70;;;18.90;73.20;;;;;;6214489;23;19907;-68
2023/05/06 11:49:52;;;;;;;1.75;0.60;;;18.90;73.20;;;;;;6215785;23;20004;-68
2023/05/06 11:52:19;;;;;;;1.95;0.70;;;18.90;73.20;;;;;;6214285;23;20000;-68
2023/05/06 11:54:45;;;;;;;2.60;0.77;;;18.90;73.30;;;;;;6215995;23;20004;-68
2023/05/06 11:57:11;;;;;;;1.02;0.60;;;18.90;73.30;;;;;;6215588;23;20357;-68
2023/05/06 11:59:37;;;;;;;0.90;0.60;;;18.90;73.30;;;;;;6214342;23;20066;-68
2023/05/06 12:02:08;;;;;;;1.55;0.60;;;18.90;73.30;;;;;;6214235;23;20076;-68
2023/05/06 12:04:44;;;;;;;1.17;0.50;;;18.90;73.30;;;;;;6189471;23;19997;-68
2023/05/06 12:07:11;;;;;;;1.50;0.50;;;18.80;73.20;;;;;;6213922;23;20103;-68
2023/05/06 12:09:38;;;;;;;1.55;0.60;;;18.80;73.20;;;;;;6214502;23;20075;-68
2023/05/06 12:12:04;;;;;;;3.80;0.70;;;18.80;73.20;;;;;;6214177;23;20004;-68
2023/05/06 12:14:30;;;;;;;1.42;0.60;;;18.80;73.20;;;;;;6214193;23;20005;-68
2023/05/06 12:16:55;;;;;;;0.98;0.50;;;18.80;73.20;;;;;;6215388;23;20483;-68
2023/05/06 12:19:21;;;;;;;0.55;0.50;;;18.80;73.20;;;;;;6189277;23;19996;-68
2023/05/06 12:21:46;;;;;;;1.30;0.63;;;18.80;73.20;;;;;;6213760;23;20143;-68
2023/05/06 12:24:12;;;;;;;2.65;1.35;;;18.80;73.20;;;;;;6213980;23;20020;-68
2023/05/06 12:26:47;;;;;;;0.98;0.70;;;18.90;73.20;;;;;;6215241;23;20001;-68
2023/05/06 12:29:16;;;;;;;1.75;0.75;;;18.80;73.10;;;;;;6213969;23;20015;-65
2023/05/06 12:31:42;;;;;;;1.13;0.50;;;18.90;73.30;;;;;;6214016;23;20035;-65
2023/05/06 12:34:08;;;;;;;1.40;0.57;;;18.80;73.20;;;;;;6215718;23;20004;-65
2023/05/06 12:36:41;;;;;;;1.80;0.70;;;18.80;73.30;;;;;;6213653;23;20011;-65
2023/05/06 12:39:06;;;;;;;1.05;0.60;;;18.80;73.30;;;;;;6215599;23;20004;-65
2023/05/06 12:41:44;;;;;;;1.05;0.60;;;18.80;73.30;;;;;;6215431;23;20024;-65
2023/05/06 12:44:31;;;;;;;0.60;0.60;;;18.80;73.30;;;;;;6213906;23;20020;-65
2023/05/06 12:46:57;;;;;;;1.40;0.73;;;18.80;73.30;;;;;;6215256;23;20005;-65